sensor_id;sensor_type;location;lat;lon;timestamp;P1;durP1;ratioP1;P2;durP2;ratioP2
34098;SDS011;20374;49.474;10.944;2023-03-22T00:00:52;4.28;;;3.97;;
34098;SDS011;20374;49.474;10.944;2023-03-22T00:03:19;5.03;;;4.73;;
34098;SDS011;20374;49.474;10.944;2023-03-22T00:05:46;4.78;;;4.38;;
34098;SDS011;20374;49.474;10.944;2023-03-22T00:08:12;5.60;;;5.20;;
34098;SDS011;20374;49.474;10.944;2023-03-22T00:10:39;4.40;;;4.10;;
34098;SDS011;20374;49.474;10.944;2023-03-22T00:13:06;4.00;;;3.70;;
34098;SDS011;20374;49.474;10.944;2023-03-22T00:15:33;4.30;;;3.90;;
34098;SDS011;20374;49.474;10.944;2023-03-22T00:18:00;4.65;;;4.35;;
34098;SDS011;20374;49.474;10.944;2023-03-22T00:20:29;4.20;;;3.90;;
34098;SDS011;20374;49.474;10.944;2023-03-22T00:22:58;4.20;;;3.90;;
34098;SDS011;20374;49.474;10.944;2023-03-22T00:25:25;4.60;;;4.20;;
34098;SDS011;20374;49.474;10.944;2023-03-22T00:27:51;4.27;;;3.97;;
34098;SDS011;20374;49.474;10.944;2023-03-22T00:30:17;5.05;;;4.65;;
34098;SDS011;20374;49.474;10.944;2023-03-22T00:32:43;4.72;;;4.32;;
34098;SDS011;20374;49.474;10.944;2023-03-22T00:35:09;5.25;;;4.88;;
34098;SDS011;20374;49.474;10.944;2023-03-22T00:37:36;4.57;;;4.17;;
34098;SDS011;20374;49.474;10.944;2023-03-22T00:40:08;4.72;;;4.43;;
34098;SDS011;20374;49.474;10.944;2023-03-22T00:42:37;4.85;;;4.45;;
34098;SDS011;20374;49.474;10.944;2023-03-22T00:45:04;4.10;;;3.75;;
34098;SDS011;20374;49.474;10.944;2023-03-22T00:47:31;4.68;;;4.28;;
34098;SDS011;20374;49.474;10.944;2023-03-22T00:49:58;4.27;;;3.97;;
34098;SDS011;20374;49.474;10.944;2023-03-22T00:52:24;5.82;;;4.32;;
34098;SDS011;20374;49.474;10.944;2023-03-22T00:54:50;4.80;;;4.40;;
34098;SDS011;20374;49.474;10.944;2023-03-22T00:57:17;3.92;;;3.63;;
34098;SDS011;20374;49.474;10.944;2023-03-22T00:59:43;4.05;;;3.75;;
34098;SDS011;20374;49.474;10.944;2023-03-22T01:02:10;4.23;;;3.83;;
34098;SDS011;20374;49.474;10.944;2023-03-22T01:04:40;4.22;;;3.85;;
34098;SDS011;20374;49.474;10.944;2023-03-22T01:07:11;4.38;;;4.07;;
34098;SDS011;20374;49.474;10.944;2023-03-22T01:09:42;4.32;;;3.97;;
34098;SDS011;20374;49.474;10.944;2023-03-22T01:12:12;4.90;;;4.60;;
34098;SDS011;20374;49.474;10.944;2023-03-22T01:14:40;3.53;;;3.30;;
34098;SDS011;20374;49.474;10.944;2023-03-22T01:17:07;4.40;;;4.10;;
34098;SDS011;20374;49.474;10.944;2023-03-22T01:19:34;4.85;;;4.45;;
34098;SDS011;20374;49.474;10.944;2023-03-22T01:22:04;4.82;;;4.47;;
34098;SDS011;20374;49.474;10.944;2023-03-22T01:24:32;4.32;;;3.88;;
34098;SDS011;20374;49.474;10.944;2023-03-22T01:26:58;4.07;;;3.77;;
34098;SDS011;20374;49.474;10.944;2023-03-22T01:29:24;4.47;;;4.07;;
34098;SDS011;20374;49.474;10.944;2023-03-22T01:31:50;4.40;;;4.03;;
34098;SDS011;20374;49.474;10.944;2023-03-22T01:34:17;4.30;;;4.00;;
34098;SDS011;20374;49.474;10.944;2023-03-22T01:36:43;4.13;;;3.83;;
34098;SDS011;20374;49.474;10.944;2023-03-22T01:39:09;4.55;;;4.15;;
34098;SDS011;20374;49.474;10.944;2023-03-22T01:41:36;4.03;;;3.72;;
34098;SDS011;20374;49.474;10.944;2023-03-22T01:44:10;3.95;;;3.58;;
34098;SDS011;20374;49.474;10.944;2023-03-22T01:46:42;3.22;;;3.03;;
34098;SDS011;20374;49.474;10.944;2023-03-22T01:49:13;4.73;;;4.40;;
34098;SDS011;20374;49.474;10.944;2023-03-22T01:51:56;3.85;;;3.55;;
34098;SDS011;20374;49.474;10.944;2023-03-22T01:54:47;3.30;;;3.10;;
34098;SDS011;20374;49.474;10.944;2023-03-22T01:57:32;3.95;;;3.63;;
34098;SDS011;20374;49.474;10.944;2023-03-22T02:00:04;4.07;;;3.78;;
34098;SDS011;20374;49.474;10.944;2023-03-22T02:02:58;5.33;;;4.50;;
34098;SDS011;20374;49.474;10.944;2023-03-22T02:05:31;3.70;;;3.08;;
34098;SDS011;20374;49.474;10.944;2023-03-22T02:07:59;4.50;;;4.20;;
34098;SDS011;20374;49.474;10.944;2023-03-22T02:10:29;3.75;;;3.45;;
34098;SDS011;20374;49.474;10.944;2023-03-22T02:18:58;3.78;;;3.53;;
34098;SDS011;20374;49.474;10.944;2023-03-22T02:25:28;4.05;;;3.72;;
34098;SDS011;20374;49.474;10.944;2023-03-22T02:44:28;5.07;;;4.57;;
34098;SDS011;20374;49.474;10.944;2023-03-22T02:47:21;4.85;;;4.05;;
34098;SDS011;20374;49.474;10.944;2023-03-22T02:52:43;4.55;;;4.18;;
34098;SDS011;20374;49.474;10.944;2023-03-22T02:58:10;4.07;;;3.77;;
34098;SDS011;20374;49.474;10.944;2023-03-22T03:00:49;3.90;;;3.55;;
34098;SDS011;20374;49.474;10.944;2023-03-22T03:03:19;9.95;;;4.07;;
34098;SDS011;20374;49.474;10.944;2023-03-22T03:05:49;4.57;;;4.28;;
34098;SDS011;20374;49.474;10.944;2023-03-22T03:08:19;3.75;;;3.45;;
34098;SDS011;20374;49.474;10.944;2023-03-22T03:10:48;3.63;;;3.40;;
34098;SDS011;20374;49.474;10.944;2023-03-22T03:13:16;2.85;;;2.65;;
34098;SDS011;20374;49.474;10.944;2023-03-22T03:15:43;3.65;;;3.35;;
34098;SDS011;20374;49.474;10.944;2023-03-22T03:28:56;4.00;;;3.75;;
34098;SDS011;20374;49.474;10.944;2023-03-22T03:34:25;3.20;;;2.83;;
34098;SDS011;20374;49.474;10.944;2023-03-22T03:37:10;3.60;;;3.37;;
34098;SDS011;20374;49.474;10.944;2023-03-22T03:39:49;3.45;;;3.22;;
34098;SDS011;20374;49.474;10.944;2023-03-22T03:42:19;5.25;;;4.85;;
34098;SDS011;20374;49.474;10.944;2023-03-22T03:44:47;4.78;;;4.32;;
34098;SDS011;20374;49.474;10.944;2023-03-22T03:47:13;3.50;;;3.28;;
34098;SDS011;20374;49.474;10.944;2023-03-22T03:49:40;4.13;;;3.83;;
34098;SDS011;20374;49.474;10.944;2023-03-22T03:52:06;4.05;;;3.15;;
34098;SDS011;20374;49.474;10.944;2023-03-22T03:54:32;3.80;;;3.50;;
34098;SDS011;20374;49.474;10.944;2023-03-22T03:56:58;4.43;;;4.05;;
34098;SDS011;20374;49.474;10.944;2023-03-22T03:59:25;3.85;;;3.55;;
34098;SDS011;20374;49.474;10.944;2023-03-22T04:01:52;3.40;;;3.07;;
34098;SDS011;20374;49.474;10.944;2023-03-22T04:04:30;2.97;;;2.78;;
34098;SDS011;20374;49.474;10.944;2023-03-22T04:06:59;3.92;;;3.65;;
34098;SDS011;20374;49.474;10.944;2023-03-22T04:09:30;5.30;;;4.90;;
34098;SDS011;20374;49.474;10.944;2023-03-22T04:12:13;3.22;;;3.03;;
34098;SDS011;20374;49.474;10.944;2023-03-22T04:14:40;3.83;;;3.57;;
34098;SDS011;20374;49.474;10.944;2023-03-22T04:17:16;3.38;;;2.72;;
34098;SDS011;20374;49.474;10.944;2023-03-22T04:19:42;4.13;;;3.85;;
34098;SDS011;20374;49.474;10.944;2023-03-22T04:22:10;3.65;;;3.22;;
34098;SDS011;20374;49.474;10.944;2023-03-22T04:24:39;3.28;;;3.08;;
34098;SDS011;20374;49.474;10.944;2023-03-22T04:27:06;4.03;;;3.27;;
34098;SDS011;20374;49.474;10.944;2023-03-22T04:29:50;3.75;;;3.45;;
34098;SDS011;20374;49.474;10.944;2023-03-22T04:32:42;3.92;;;3.63;;
34098;SDS011;20374;49.474;10.944;2023-03-22T04:35:08;5.28;;;4.50;;
34098;SDS011;20374;49.474;10.944;2023-03-22T04:37:34;4.15;;;3.35;;
34098;SDS011;20374;49.474;10.944;2023-03-22T04:40:20;3.43;;;3.13;;
34098;SDS011;20374;49.474;10.944;2023-03-22T04:43:01;5.38;;;3.90;;
34098;SDS011;20374;49.474;10.944;2023-03-22T04:45:57;4.53;;;4.22;;
34098;SDS011;20374;49.474;10.944;2023-03-22T04:48:31;4.10;;;3.25;;
34098;SDS011;20374;49.474;10.944;2023-03-22T04:50:59;3.95;;;3.58;;
34098;SDS011;20374;49.474;10.944;2023-03-22T04:53:33;3.97;;;3.67;;
34098;SDS011;20374;49.474;10.944;2023-03-22T04:56:07;3.58;;;3.28;;
34098;SDS011;20374;49.474;10.944;2023-03-22T04:58:37;3.30;;;3.10;;
34098;SDS011;20374;49.474;10.944;2023-03-22T05:01:05;4.70;;;4.30;;
34098;SDS011;20374;49.474;10.944;2023-03-22T05:03:36;3.90;;;3.55;;
34098;SDS011;20374;49.474;10.944;2023-03-22T05:06:03;3.50;;;3.20;;
34098;SDS011;20374;49.474;10.944;2023-03-22T05:08:54;3.67;;;3.38;;
34098;SDS011;20374;49.474;10.944;2023-03-22T05:11:21;5.70;;;4.63;;
34098;SDS011;20374;49.474;10.944;2023-03-22T05:14:03;3.90;;;3.40;;
34098;SDS011;20374;49.474;10.944;2023-03-22T05:16:30;4.13;;;3.80;;
34098;SDS011;20374;49.474;10.944;2023-03-22T05:18:57;4.10;;;3.80;;
34098;SDS011;20374;49.474;10.944;2023-03-22T05:21:23;3.63;;;3.33;;
34098;SDS011;20374;49.474;10.944;2023-03-22T05:23:55;3.92;;;3.63;;
34098;SDS011;20374;49.474;10.944;2023-03-22T05:26:23;4.40;;;4.00;;
34098;SDS011;20374;49.474;10.944;2023-03-22T05:28:51;3.65;;;3.35;;
34098;SDS011;20374;49.474;10.944;2023-03-22T05:31:26;4.10;;;3.80;;
34098;SDS011;20374;49.474;10.944;2023-03-22T05:33:57;3.75;;;3.55;;
34098;SDS011;20374;49.474;10.944;2023-03-22T05:36:26;4.47;;;4.07;;
34098;SDS011;20374;49.474;10.944;2023-03-22T05:39:09;4.00;;;3.70;;
34098;SDS011;20374;49.474;10.944;2023-03-22T05:41:35;4.63;;;4.22;;
34098;SDS011;20374;49.474;10.944;2023-03-22T05:44:02;4.83;;;3.93;;
34098;SDS011;20374;49.474;10.944;2023-03-22T05:46:29;4.05;;;3.75;;
34098;SDS011;20374;49.474;10.944;2023-03-22T05:49:13;4.78;;;4.35;;
34098;SDS011;20374;49.474;10.944;2023-03-22T05:51:39;4.05;;;3.75;;
34098;SDS011;20374;49.474;10.944;2023-03-22T05:54:08;6.35;;;4.00;;
34098;SDS011;20374;49.474;10.944;2023-03-22T05:56:39;3.87;;;3.63;;
34098;SDS011;20374;49.474;10.944;2023-03-22T05:59:05;4.68;;;3.92;;
34098;SDS011;20374;49.474;10.944;2023-03-22T06:01:32;4.90;;;4.60;;
34098;SDS011;20374;49.474;10.944;2023-03-22T06:04:10;4.55;;;3.70;;
34098;SDS011;20374;49.474;10.944;2023-03-22T06:06:57;5.75;;;5.25;;
34098;SDS011;20374;49.474;10.944;2023-03-22T06:09:34;3.67;;;3.37;;
34098;SDS011;20374;49.474;10.944;2023-03-22T06:12:04;5.45;;;4.93;;
34098;SDS011;20374;49.474;10.944;2023-03-22T06:14:30;4.90;;;4.50;;
34098;SDS011;20374;49.474;10.944;2023-03-22T06:17:13;3.83;;;3.53;;
34098;SDS011;20374;49.474;10.944;2023-03-22T06:19:40;6.40;;;5.95;;
34098;SDS011;20374;49.474;10.944;2023-03-22T06:22:07;4.40;;;3.83;;
34098;SDS011;20374;49.474;10.944;2023-03-22T06:24:35;5.20;;;4.80;;
34098;SDS011;20374;49.474;10.944;2023-03-22T06:27:03;5.50;;;5.10;;
34098;SDS011;20374;49.474;10.944;2023-03-22T06:29:30;4.60;;;4.20;;
34098;SDS011;20374;49.474;10.944;2023-03-22T06:32:01;5.70;;;5.22;;
34098;SDS011;20374;49.474;10.944;2023-03-22T06:34:29;4.73;;;4.33;;
34098;SDS011;20374;49.474;10.944;2023-03-22T06:36:55;5.88;;;5.47;;
34098;SDS011;20374;49.474;10.944;2023-03-22T06:39:26;5.50;;;5.05;;
34098;SDS011;20374;49.474;10.944;2023-03-22T06:41:52;6.10;;;5.50;;
34098;SDS011;20374;49.474;10.944;2023-03-22T06:44:18;5.77;;;5.37;;
34098;SDS011;20374;49.474;10.944;2023-03-22T06:46:50;6.32;;;5.93;;
34098;SDS011;20374;49.474;10.944;2023-03-22T06:49:51;8.23;;;7.72;;
34098;SDS011;20374;49.474;10.944;2023-03-22T06:52:22;5.78;;;5.30;;
34098;SDS011;20374;49.474;10.944;2023-03-22T06:54:48;6.05;;;5.55;;
34098;SDS011;20374;49.474;10.944;2023-03-22T06:57:14;6.30;;;5.73;;
34098;SDS011;20374;49.474;10.944;2023-03-22T06:59:40;5.90;;;5.40;;
34098;SDS011;20374;49.474;10.944;2023-03-22T07:02:08;6.38;;;5.88;;
34098;SDS011;20374;49.474;10.944;2023-03-22T07:04:36;5.80;;;5.30;;
34098;SDS011;20374;49.474;10.944;2023-03-22T07:07:02;5.53;;;5.13;;
34098;SDS011;20374;49.474;10.944;2023-03-22T07:09:28;4.97;;;4.68;;
34098;SDS011;20374;49.474;10.944;2023-03-22T07:11:57;5.30;;;4.90;;
34098;SDS011;20374;49.474;10.944;2023-03-22T07:14:23;5.50;;;5.10;;
34098;SDS011;20374;49.474;10.944;2023-03-22T07:17:07;5.60;;;5.20;;
34098;SDS011;20374;49.474;10.944;2023-03-22T07:19:33;5.97;;;5.57;;
34098;SDS011;20374;49.474;10.944;2023-03-22T07:22:04;5.68;;;5.28;;
34098;SDS011;20374;49.474;10.944;2023-03-22T07:24:31;5.57;;;4.95;;
34098;SDS011;20374;49.474;10.944;2023-03-22T07:26:57;6.20;;;5.60;;
34098;SDS011;20374;49.474;10.944;2023-03-22T07:29:26;5.38;;;4.97;;
34098;SDS011;20374;49.474;10.944;2023-03-22T07:31:52;5.63;;;5.22;;
34098;SDS011;20374;49.474;10.944;2023-03-22T07:34:30;5.85;;;5.32;;
34098;SDS011;20374;49.474;10.944;2023-03-22T07:37:02;5.40;;;4.90;;
34098;SDS011;20374;49.474;10.944;2023-03-22T07:39:29;6.60;;;6.10;;
34098;SDS011;20374;49.474;10.944;2023-03-22T07:41:56;5.00;;;4.60;;
34098;SDS011;20374;49.474;10.944;2023-03-22T07:44:22;5.82;;;5.32;;
34098;SDS011;20374;49.474;10.944;2023-03-22T07:47:08;5.30;;;4.90;;
34098;SDS011;20374;49.474;10.944;2023-03-22T07:49:57;7.57;;;6.97;;
34098;SDS011;20374;49.474;10.944;2023-03-22T07:52:25;5.80;;;5.30;;
34098;SDS011;20374;49.474;10.944;2023-03-22T07:54:52;5.72;;;5.22;;
34098;SDS011;20374;49.474;10.944;2023-03-22T07:57:18;6.10;;;5.65;;
34098;SDS011;20374;49.474;10.944;2023-03-22T07:59:54;6.30;;;5.80;;
34098;SDS011;20374;49.474;10.944;2023-03-22T08:02:22;5.80;;;5.40;;
34098;SDS011;20374;49.474;10.944;2023-03-22T08:04:51;5.22;;;4.85;;
34098;SDS011;20374;49.474;10.944;2023-03-22T08:07:39;5.85;;;5.45;;
34098;SDS011;20374;49.474;10.944;2023-03-22T08:10:05;5.50;;;5.10;;
34098;SDS011;20374;49.474;10.944;2023-03-22T08:12:33;5.63;;;5.32;;
34098;SDS011;20374;49.474;10.944;2023-03-22T08:15:18;5.23;;;4.93;;
34098;SDS011;20374;49.474;10.944;2023-03-22T08:17:44;6.45;;;6.05;;
34098;SDS011;20374;49.474;10.944;2023-03-22T08:20:17;5.13;;;4.82;;
34098;SDS011;20374;49.474;10.944;2023-03-22T08:22:50;6.20;;;5.80;;
34098;SDS011;20374;49.474;10.944;2023-03-22T08:25:19;5.60;;;5.20;;
34098;SDS011;20374;49.474;10.944;2023-03-22T08:27:46;5.67;;;5.27;;
34098;SDS011;20374;49.474;10.944;2023-03-22T08:30:12;5.10;;;4.70;;
34098;SDS011;20374;49.474;10.944;2023-03-22T08:32:39;5.78;;;5.38;;
34098;SDS011;20374;49.474;10.944;2023-03-22T08:35:13;5.50;;;5.10;;
34098;SDS011;20374;49.474;10.944;2023-03-22T08:37:55;5.63;;;5.22;;
34098;SDS011;20374;49.474;10.944;2023-03-22T08:40:26;5.40;;;5.00;;
34098;SDS011;20374;49.474;10.944;2023-03-22T08:42:59;5.22;;;4.93;;
34098;SDS011;20374;49.474;10.944;2023-03-22T08:45:27;4.95;;;4.65;;
34098;SDS011;20374;49.474;10.944;2023-03-22T08:47:59;5.60;;;5.20;;
34098;SDS011;20374;49.474;10.944;2023-03-22T08:50:26;5.90;;;5.50;;
34098;SDS011;20374;49.474;10.944;2023-03-22T08:53:06;5.50;;;5.20;;
34098;SDS011;20374;49.474;10.944;2023-03-22T08:55:33;5.60;;;5.15;;
34098;SDS011;20374;49.474;10.944;2023-03-22T08:58:12;5.57;;;5.28;;
34098;SDS011;20374;49.474;10.944;2023-03-22T09:00:43;5.97;;;5.63;;
34098;SDS011;20374;49.474;10.944;2023-03-22T09:03:14;5.53;;;5.13;;
34098;SDS011;20374;49.474;10.944;2023-03-22T09:05:40;5.20;;;4.90;;
34098;SDS011;20374;49.474;10.944;2023-03-22T09:08:06;5.90;;;5.50;;
34098;SDS011;20374;49.474;10.944;2023-03-22T09:10:48;5.43;;;5.13;;
34098;SDS011;20374;49.474;10.944;2023-03-22T09:13:18;5.07;;;4.78;;
34098;SDS011;20374;49.474;10.944;2023-03-22T09:15:52;5.32;;;5.03;;
34098;SDS011;20374;49.474;10.944;2023-03-22T09:18:24;5.20;;;4.90;;
34098;SDS011;20374;49.474;10.944;2023-03-22T09:20:51;4.68;;;4.38;;
34098;SDS011;20374;49.474;10.944;2023-03-22T09:23:21;5.25;;;4.95;;
34098;SDS011;20374;49.474;10.944;2023-03-22T09:25:48;4.18;;;3.78;;
34098;SDS011;20374;49.474;10.944;2023-03-22T09:28:20;4.43;;;4.13;;
34098;SDS011;20374;49.474;10.944;2023-03-22T09:30:48;4.87;;;4.47;;
34098;SDS011;20374;49.474;10.944;2023-03-22T09:33:15;4.43;;;4.13;;
34098;SDS011;20374;49.474;10.944;2023-03-22T09:35:45;5.22;;;4.82;;
34098;SDS011;20374;49.474;10.944;2023-03-22T09:38:13;4.55;;;4.25;;
34098;SDS011;20374;49.474;10.944;2023-03-22T09:40:45;4.60;;;4.32;;
34098;SDS011;20374;49.474;10.944;2023-03-22T09:43:18;5.03;;;4.73;;
34098;SDS011;20374;49.474;10.944;2023-03-22T09:45:45;4.03;;;3.72;;
34098;SDS011;20374;49.474;10.944;2023-03-22T09:48:18;4.78;;;4.47;;
34098;SDS011;20374;49.474;10.944;2023-03-22T09:50:47;4.45;;;4.15;;
34098;SDS011;20374;49.474;10.944;2023-03-22T09:53:16;4.30;;;4.00;;
34098;SDS011;20374;49.474;10.944;2023-03-22T09:55:45;4.63;;;4.33;;
34098;SDS011;20374;49.474;10.944;2023-03-22T09:58:23;4.45;;;3.42;;
34098;SDS011;20374;49.474;10.944;2023-03-22T10:01:11;4.35;;;4.05;;
34098;SDS011;20374;49.474;10.944;2023-03-22T10:12:34;4.68;;;4.38;;
34098;SDS011;20374;49.474;10.944;2023-03-22T10:15:07;4.85;;;4.55;;
34098;SDS011;20374;49.474;10.944;2023-03-22T10:17:44;4.60;;;4.30;;
34098;SDS011;20374;49.474;10.944;2023-03-22T10:22:54;5.63;;;5.33;;
34098;SDS011;20374;49.474;10.944;2023-03-22T10:25:23;3.50;;;3.30;;
34098;SDS011;20374;49.474;10.944;2023-03-22T10:27:57;4.63;;;4.22;;
34098;SDS011;20374;49.474;10.944;2023-03-22T10:30:25;4.93;;;4.63;;
34098;SDS011;20374;49.474;10.944;2023-03-22T10:35:28;4.53;;;4.30;;
34098;SDS011;20374;49.474;10.944;2023-03-22T10:37:56;5.80;;;5.50;;
34098;SDS011;20374;49.474;10.944;2023-03-22T10:40:25;5.22;;;4.93;;
34098;SDS011;20374;49.474;10.944;2023-03-22T10:43:01;5.10;;;4.80;;
34098;SDS011;20374;49.474;10.944;2023-03-22T10:45:35;4.63;;;4.33;;
34098;SDS011;20374;49.474;10.944;2023-03-22T10:50:35;5.70;;;5.40;;
34098;SDS011;20374;49.474;10.944;2023-03-22T10:53:20;4.97;;;4.68;;
34098;SDS011;20374;49.474;10.944;2023-03-22T10:55:49;4.95;;;4.53;;
34098;SDS011;20374;49.474;10.944;2023-03-22T10:58:18;5.03;;;4.73;;
34098;SDS011;20374;49.474;10.944;2023-03-22T11:06:16;5.55;;;5.20;;
34098;SDS011;20374;49.474;10.944;2023-03-22T11:08:53;4.80;;;4.50;;
34098;SDS011;20374;49.474;10.944;2023-03-22T11:11:30;5.00;;;4.60;;
34098;SDS011;20374;49.474;10.944;2023-03-22T11:14:09;4.35;;;4.05;;
34098;SDS011;20374;49.474;10.944;2023-03-22T11:19:09;4.60;;;4.30;;
34098;SDS011;20374;49.474;10.944;2023-03-22T11:21:42;4.50;;;4.20;;
34098;SDS011;20374;49.474;10.944;2023-03-22T11:24:09;4.20;;;3.90;;
34098;SDS011;20374;49.474;10.944;2023-03-22T11:26:38;4.97;;;4.68;;
34098;SDS011;20374;49.474;10.944;2023-03-22T11:29:15;4.50;;;4.20;;
34098;SDS011;20374;49.474;10.944;2023-03-22T11:34:25;4.50;;;4.20;;
34098;SDS011;20374;49.474;10.944;2023-03-22T11:36:53;4.90;;;4.60;;
34098;SDS011;20374;49.474;10.944;2023-03-22T11:39:22;5.28;;;4.97;;
34098;SDS011;20374;49.474;10.944;2023-03-22T11:41:50;4.00;;;3.80;;
34098;SDS011;20374;49.474;10.944;2023-03-22T11:44:18;4.88;;;4.57;;
34098;SDS011;20374;49.474;10.944;2023-03-22T11:46:47;5.30;;;5.00;;
34098;SDS011;20374;49.474;10.944;2023-03-22T11:52:21;5.68;;;5.38;;
34098;SDS011;20374;49.474;10.944;2023-03-22T11:54:50;5.03;;;4.72;;
34098;SDS011;20374;49.474;10.944;2023-03-22T11:57:28;5.90;;;5.60;;
34098;SDS011;20374;49.474;10.944;2023-03-22T12:00:00;6.37;;;5.97;;
34098;SDS011;20374;49.474;10.944;2023-03-22T12:02:47;5.43;;;5.13;;
34098;SDS011;20374;49.474;10.944;2023-03-22T12:05:24;5.38;;;5.00;;
34098;SDS011;20374;49.474;10.944;2023-03-22T12:08:04;5.78;;;5.47;;
34098;SDS011;20374;49.474;10.944;2023-03-22T12:10:41;5.95;;;5.55;;
34098;SDS011;20374;49.474;10.944;2023-03-22T12:15:42;5.60;;;5.30;;
34098;SDS011;20374;49.474;10.944;2023-03-22T12:18:29;5.90;;;5.50;;
34098;SDS011;20374;49.474;10.944;2023-03-22T12:21:09;5.10;;;4.75;;
34098;SDS011;20374;49.474;10.944;2023-03-22T12:23:37;5.38;;;5.07;;
34098;SDS011;20374;49.474;10.944;2023-03-22T12:26:11;5.17;;;4.83;;
34098;SDS011;20374;49.474;10.944;2023-03-22T12:28:42;6.03;;;5.72;;
34098;SDS011;20374;49.474;10.944;2023-03-22T12:31:22;5.82;;;5.53;;
34098;SDS011;20374;49.474;10.944;2023-03-22T12:34:02;6.03;;;5.72;;
34098;SDS011;20374;49.474;10.944;2023-03-22T12:36:44;6.50;;;6.10;;
34098;SDS011;20374;49.474;10.944;2023-03-22T12:39:24;6.33;;;5.93;;
34098;SDS011;20374;49.474;10.944;2023-03-22T12:41:59;7.28;;;6.15;;
34098;SDS011;20374;49.474;10.944;2023-03-22T12:44:40;5.97;;;5.47;;
34098;SDS011;20374;49.474;10.944;2023-03-22T12:47:22;5.53;;;5.22;;
34098;SDS011;20374;49.474;10.944;2023-03-22T12:49:57;5.55;;;5.25;;
34098;SDS011;20374;49.474;10.944;2023-03-22T12:52:46;4.57;;;4.27;;
34098;SDS011;20374;49.474;10.944;2023-03-22T12:55:21;5.50;;;5.20;;
34098;SDS011;20374;49.474;10.944;2023-03-22T12:57:49;5.75;;;5.45;;
34098;SDS011;20374;49.474;10.944;2023-03-22T13:00:16;5.47;;;5.03;;
34098;SDS011;20374;49.474;10.944;2023-03-22T13:02:57;5.18;;;4.82;;
34098;SDS011;20374;49.474;10.944;2023-03-22T13:05:25;5.30;;;5.00;;
34098;SDS011;20374;49.474;10.944;2023-03-22T13:07:53;5.72;;;5.43;;
34098;SDS011;20374;49.474;10.944;2023-03-22T13:26:22;4.10;;;3.90;;
34098;SDS011;20374;49.474;10.944;2023-03-22T13:29:22;4.45;;;4.18;;
34098;SDS011;20374;49.474;10.944;2023-03-22T13:31:59;4.57;;;4.27;;
34098;SDS011;20374;49.474;10.944;2023-03-22T13:34:30;7.13;;;6.60;;
34098;SDS011;20374;49.474;10.944;2023-03-22T13:37:02;5.82;;;5.43;;
34098;SDS011;20374;49.474;10.944;2023-03-22T13:39:35;6.55;;;6.15;;
34098;SDS011;20374;49.474;10.944;2023-03-22T13:42:07;6.45;;;6.05;;
34098;SDS011;20374;49.474;10.944;2023-03-22T13:44:38;5.07;;;4.77;;
34098;SDS011;20374;49.474;10.944;2023-03-22T13:47:27;5.65;;;5.35;;
34098;SDS011;20374;49.474;10.944;2023-03-22T13:50:05;5.03;;;4.72;;
34098;SDS011;20374;49.474;10.944;2023-03-22T13:52:53;5.25;;;4.95;;
34098;SDS011;20374;49.474;10.944;2023-03-22T14:01:27;5.18;;;4.88;;
34098;SDS011;20374;49.474;10.944;2023-03-22T14:04:05;4.43;;;4.18;;
34098;SDS011;20374;49.474;10.944;2023-03-22T14:06:36;4.45;;;4.22;;
34098;SDS011;20374;49.474;10.944;2023-03-22T14:09:24;4.95;;;4.65;;
34098;SDS011;20374;49.474;10.944;2023-03-22T14:12:04;5.40;;;5.10;;
34098;SDS011;20374;49.474;10.944;2023-03-22T14:14:41;4.65;;;4.35;;
34098;SDS011;20374;49.474;10.944;2023-03-22T14:17:28;5.53;;;5.13;;
34098;SDS011;20374;49.474;10.944;2023-03-22T14:19:56;4.65;;;4.35;;
34098;SDS011;20374;49.474;10.944;2023-03-22T14:22:31;5.18;;;4.88;;
34098;SDS011;20374;49.474;10.944;2023-03-22T14:25:02;5.47;;;5.03;;
34098;SDS011;20374;49.474;10.944;2023-03-22T14:27:31;5.57;;;5.28;;
34098;SDS011;20374;49.474;10.944;2023-03-22T14:29:59;5.68;;;5.38;;
34098;SDS011;20374;49.474;10.944;2023-03-22T14:32:26;4.90;;;4.60;;
34098;SDS011;20374;49.474;10.944;2023-03-22T14:34:59;4.88;;;4.47;;
34098;SDS011;20374;49.474;10.944;2023-03-22T14:37:43;5.13;;;4.83;;
34098;SDS011;20374;49.474;10.944;2023-03-22T14:40:31;4.70;;;4.40;;
34098;SDS011;20374;49.474;10.944;2023-03-22T14:45:43;5.25;;;4.75;;
34098;SDS011;20374;49.474;10.944;2023-03-22T14:48:17;4.50;;;4.20;;
34098;SDS011;20374;49.474;10.944;2023-03-22T14:50:47;5.00;;;4.70;;
34098;SDS011;20374;49.474;10.944;2023-03-22T14:53:26;5.07;;;4.78;;
34098;SDS011;20374;49.474;10.944;2023-03-22T14:55:56;5.13;;;4.82;;
34098;SDS011;20374;49.474;10.944;2023-03-22T14:58:24;5.18;;;4.82;;
34098;SDS011;20374;49.474;10.944;2023-03-22T15:00:59;5.28;;;4.97;;
34098;SDS011;20374;49.474;10.944;2023-03-22T15:03:26;4.83;;;4.53;;
34098;SDS011;20374;49.474;10.944;2023-03-22T15:05:56;4.90;;;4.60;;
34098;SDS011;20374;49.474;10.944;2023-03-22T15:08:24;5.10;;;4.80;;
34098;SDS011;20374;49.474;10.944;2023-03-22T15:10:59;4.78;;;4.47;;
34098;SDS011;20374;49.474;10.944;2023-03-22T15:13:27;4.28;;;4.03;;
34098;SDS011;20374;49.474;10.944;2023-03-22T15:15:54;5.17;;;4.87;;
34098;SDS011;20374;49.474;10.944;2023-03-22T15:18:21;4.70;;;4.40;;
34098;SDS011;20374;49.474;10.944;2023-03-22T15:20:52;5.45;;;5.15;;
34098;SDS011;20374;49.474;10.944;2023-03-22T15:23:20;4.78;;;4.47;;
34098;SDS011;20374;49.474;10.944;2023-03-22T15:25:54;4.72;;;4.43;;
34098;SDS011;20374;49.474;10.944;2023-03-22T15:28:28;4.07;;;3.87;;
34098;SDS011;20374;49.474;10.944;2023-03-22T15:30:59;4.13;;;3.92;;
34098;SDS011;20374;49.474;10.944;2023-03-22T15:36:01;4.03;;;3.83;;
34098;SDS011;20374;49.474;10.944;2023-03-22T15:38:32;4.80;;;4.50;;
34098;SDS011;20374;49.474;10.944;2023-03-22T15:46:46;4.70;;;4.40;;
34098;SDS011;20374;49.474;10.944;2023-03-22T15:49:23;4.90;;;4.60;;
34098;SDS011;20374;49.474;10.944;2023-03-22T15:51:56;5.00;;;4.70;;
34098;SDS011;20374;49.474;10.944;2023-03-22T15:54:47;4.03;;;3.83;;
34098;SDS011;20374;49.474;10.944;2023-03-22T15:57:20;4.13;;;3.83;;
34098;SDS011;20374;49.474;10.944;2023-03-22T15:59:52;4.70;;;4.40;;
34098;SDS011;20374;49.474;10.944;2023-03-22T16:02:31;4.78;;;4.47;;
34098;SDS011;20374;49.474;10.944;2023-03-22T16:04:58;3.95;;;3.65;;
34098;SDS011;20374;49.474;10.944;2023-03-22T16:07:26;4.40;;;4.10;;
34098;SDS011;20374;49.474;10.944;2023-03-22T16:09:54;4.38;;;4.18;;
34098;SDS011;20374;49.474;10.944;2023-03-22T16:12:21;5.05;;;4.75;;
34098;SDS011;20374;49.474;10.944;2023-03-22T16:14:48;4.57;;;4.38;;
34098;SDS011;20374;49.474;10.944;2023-03-22T16:17:18;4.88;;;4.57;;
34098;SDS011;20374;49.474;10.944;2023-03-22T16:19:46;4.17;;;3.87;;
34098;SDS011;20374;49.474;10.944;2023-03-22T16:22:13;4.22;;;3.92;;
34098;SDS011;20374;49.474;10.944;2023-03-22T16:24:40;4.90;;;4.60;;
34098;SDS011;20374;49.474;10.944;2023-03-22T16:27:14;4.95;;;4.65;;
34098;SDS011;20374;49.474;10.944;2023-03-22T16:29:46;5.30;;;4.80;;
34098;SDS011;20374;49.474;10.944;2023-03-22T16:32:16;5.00;;;4.70;;
34098;SDS011;20374;49.474;10.944;2023-03-22T16:34:47;4.28;;;3.97;;
34098;SDS011;20374;49.474;10.944;2023-03-22T16:37:14;5.10;;;4.80;;
34098;SDS011;20374;49.474;10.944;2023-03-22T16:39:48;4.07;;;3.88;;
34098;SDS011;20374;49.474;10.944;2023-03-22T16:42:16;4.60;;;4.32;;
34098;SDS011;20374;49.474;10.944;2023-03-22T16:44:42;4.43;;;4.13;;
34098;SDS011;20374;49.474;10.944;2023-03-22T16:47:11;4.70;;;4.40;;
34098;SDS011;20374;49.474;10.944;2023-03-22T16:49:48;5.22;;;4.72;;
34098;SDS011;20374;49.474;10.944;2023-03-22T16:52:19;4.25;;;4.05;;